createdAt,value
2022-11-14T00:00:52.064Z,85.97
2022-11-14T00:03:39.021Z,85.77
2022-11-14T00:06:26.056Z,86.69
2022-11-14T00:09:13.066Z,86.15
2022-11-14T00:11:59.924Z,86.54
2022-11-14T00:14:46.898Z,86.63
2022-11-14T00:17:35.323Z,86.64
2022-11-14T00:20:22.210Z,86.67
2022-11-14T00:23:09.427Z,86.86
2022-11-14T00:25:56.364Z,87.02
2022-11-14T00:28:43.213Z,86.50
2022-11-14T00:31:30.026Z,86.53
2022-11-14T00:34:19.427Z,86.81
2022-11-14T00:37:06.487Z,86.77
2022-11-14T00:39:53.332Z,87.17
2022-11-14T00:42:40.225Z,86.86
2022-11-14T00:45:27.399Z,86.86
2022-11-14T00:48:14.418Z,86.67
2022-11-14T00:51:02.871Z,87.02
2022-11-14T00:53:49.948Z,87.22
2022-11-14T00:56:36.947Z,86.91
2022-11-14T00:59:23.727Z,87.09
2022-11-14T01:02:10.599Z,87.08
2022-11-14T01:04:57.581Z,87.64
2022-11-14T01:07:46.059Z,88.18
2022-11-14T01:10:33.300Z,87.39
2022-11-14T01:13:20.341Z,87.32
2022-11-14T01:16:08.394Z,87.25
2022-11-14T01:18:55.427Z,86.93
2022-11-14T01:21:42.309Z,86.80
2022-11-14T01:24:32.577Z,87.05
2022-11-14T01:27:19.635Z,86.85
2022-11-14T01:30:07.667Z,86.71
2022-11-14T01:32:54.644Z,87.09
2022-11-14T01:35:41.668Z,86.86
2022-11-14T01:38:28.623Z,86.95
2022-11-14T01:41:17.770Z,86.94
2022-11-14T01:44:12.609Z,86.71
2022-11-14T01:46:59.496Z,86.77
2022-11-14T01:49:49.482Z,87.55
2022-11-14T01:52:40.351Z,87.31
2022-11-14T01:55:27.748Z,87.02
2022-11-14T01:58:17.555Z,87.24
2022-11-14T02:01:04.799Z,87.05
2022-11-14T02:03:54.177Z,86.65
2022-11-14T02:06:41.815Z,86.96
2022-11-14T02:09:31.874Z,86.07
2022-11-14T02:12:20.636Z,86.66
2022-11-14T02:15:10.979Z,86.46
2022-11-14T02:17:59.122Z,86.73
2022-11-14T02:20:47.712Z,87.49
2022-11-14T02:23:34.924Z,87.16
2022-11-14T02:26:23.441Z,87.05
2022-11-14T02:29:11.936Z,86.73
2022-11-14T02:31:59.035Z,86.09
2022-11-14T02:34:45.888Z,86.68
2022-11-14T02:37:34.227Z,88.33
2022-11-14T02:40:21.247Z,88.74
2022-11-14T02:43:08.133Z,88.97
2022-11-14T02:45:55.026Z,88.89
2022-11-14T02:48:42.025Z,88.98
2022-11-14T02:51:28.795Z,88.79
2022-11-14T02:54:17.069Z,88.24
2022-11-14T02:57:04.044Z,88.79
2022-11-14T02:59:50.855Z,88.86
2022-11-14T03:02:37.626Z,89.23
2022-11-14T03:05:24.539Z,88.75
2022-11-14T03:08:11.390Z,88.29
2022-11-14T03:11:05.547Z,88.62
2022-11-14T03:13:52.497Z,88.90
2022-11-14T03:16:39.442Z,88.98
2022-11-14T03:19:26.528Z,89.12
2022-11-14T03:22:13.503Z,88.85
2022-11-14T03:25:00.316Z,89.60
2022-11-14T03:27:48.992Z,90.83
2022-11-14T03:30:36.289Z,90.63
2022-11-14T03:33:23.339Z,89.65
2022-11-14T03:36:10.400Z,88.94
2022-11-14T03:38:57.469Z,88.34
2022-11-14T03:41:44.352Z,89.06
2022-11-14T03:44:32.515Z,88.83
2022-11-14T03:47:19.335Z,87.80
2022-11-14T03:50:07.262Z,87.62
2022-11-14T03:52:54.557Z,87.71
2022-11-14T03:55:43.921Z,88.04
2022-11-14T03:58:31.320Z,87.21
2022-11-14T04:01:20.336Z,87.21
2022-11-14T04:04:07.412Z,88.22
2022-11-14T04:06:54.280Z,88.66
2022-11-14T04:09:41.285Z,88.55
2022-11-14T04:12:28.200Z,88.99
2022-11-14T04:15:15.083Z,88.83
2022-11-14T04:18:03.343Z,89.09
2022-11-14T04:20:50.160Z,89.35
2022-11-14T04:23:37.157Z,89.58
2022-11-14T04:26:23.945Z,89.00
2022-11-14T04:29:10.780Z,89.66
2022-11-14T04:31:57.744Z,88.50
2022-11-14T04:34:45.948Z,88.83
2022-11-14T04:37:32.846Z,88.05
2022-11-14T04:40:19.747Z,87.89
2022-11-14T04:43:06.652Z,88.22
2022-11-14T04:45:53.640Z,88.19
2022-11-14T04:48:40.436Z,88.22
2022-11-14T04:51:28.591Z,87.67
2022-11-14T04:54:15.435Z,87.47
2022-11-14T04:57:02.206Z,87.53
2022-11-14T04:59:49.101Z,87.76
2022-11-14T05:02:35.828Z,87.71
2022-11-14T05:05:22.956Z,88.00
2022-11-14T05:08:11.131Z,88.05
2022-11-14T05:10:58.018Z,88.21
2022-11-14T05:13:45.033Z,88.63
2022-11-14T05:16:31.977Z,87.91
2022-11-14T05:19:18.882Z,87.69
2022-11-14T05:22:05.663Z,87.90
2022-11-14T05:24:53.963Z,88.09
2022-11-14T05:27:40.938Z,87.58
2022-11-14T05:30:27.800Z,87.61
2022-11-14T05:33:14.835Z,87.77
2022-11-14T05:36:05.772Z,87.67
2022-11-14T05:38:52.975Z,88.00
2022-11-14T05:41:41.266Z,87.37
2022-11-14T05:44:28.088Z,88.13
2022-11-14T05:47:15.103Z,86.85
2022-11-14T05:50:02.017Z,86.47
2022-11-14T05:52:49.176Z,86.21
2022-11-14T05:55:36.261Z,85.88
2022-11-14T05:58:24.386Z,86.45
2022-11-14T06:01:13.536Z,86.16
2022-11-14T06:04:00.442Z,86.69
2022-11-14T06:06:47.407Z,86.77
2022-11-14T06:09:34.337Z,86.30
2022-11-14T06:12:21.221Z,85.58
2022-11-14T06:15:10.511Z,86.06
2022-11-14T06:17:57.869Z,85.69
2022-11-14T06:20:44.921Z,85.97
2022-11-14T06:23:32.074Z,85.44
2022-11-14T06:26:23.087Z,86.18
2022-11-14T06:29:11.640Z,85.04
2022-11-14T06:31:59.931Z,85.78
2022-11-14T06:34:47.144Z,85.99
2022-11-14T06:37:36.344Z,85.13
2022-11-14T06:40:23.640Z,84.49
2022-11-14T06:43:10.420Z,85.73
2022-11-14T06:45:57.280Z,85.17
2022-11-14T06:48:48.224Z,85.24
2022-11-14T06:51:35.315Z,85.40
2022-11-14T06:54:22.215Z,84.88
2022-11-14T06:57:09.117Z,84.50
2022-11-14T06:59:56.036Z,84.37
2022-11-14T07:02:46.627Z,84.18
2022-11-14T07:05:34.751Z,84.46
2022-11-14T07:08:21.671Z,84.48
2022-11-14T07:11:11.196Z,84.40
2022-11-14T07:14:00.349Z,85.52
2022-11-14T07:16:47.911Z,84.93
2022-11-14T07:19:35.208Z,84.66
2022-11-14T07:22:24.276Z,85.02
2022-11-14T07:25:11.855Z,84.41
2022-11-14T07:27:59.686Z,83.98
2022-11-14T07:30:47.023Z,83.51
2022-11-14T07:33:35.838Z,83.22
2022-11-14T07:36:24.890Z,82.91
2022-11-14T07:39:13.645Z,82.22
2022-11-14T07:42:02.192Z,82.80
2022-11-14T07:44:49.293Z,82.96
2022-11-14T07:47:37.683Z,82.42
2022-11-14T07:50:25.623Z,81.91
2022-11-14T07:53:13.637Z,82.26
2022-11-14T07:56:06.883Z,81.87
2022-11-14T07:58:54.962Z,81.84
2022-11-14T08:01:42.845Z,81.29
2022-11-14T08:04:31.685Z,81.85
2022-11-14T08:07:18.657Z,82.01
2022-11-14T08:10:06.775Z,80.91
2022-11-14T08:13:25.149Z,80.83
2022-11-14T08:16:13.345Z,79.78
2022-11-14T08:19:01.464Z,79.90
2022-11-14T08:21:48.655Z,80.31
2022-11-14T08:24:35.689Z,79.58
2022-11-14T08:27:24.089Z,78.33
2022-11-14T08:30:13.960Z,77.63
2022-11-14T08:33:03.711Z,76.98
2022-11-14T08:35:50.518Z,76.05
2022-11-14T08:38:37.759Z,76.02
2022-11-14T08:41:24.620Z,77.04
2022-11-14T08:44:11.496Z,77.21
2022-11-14T08:47:00.454Z,77.19
2022-11-14T08:49:47.683Z,77.73
2022-11-14T08:52:34.517Z,77.93
2022-11-14T08:55:22.295Z,77.42
2022-11-14T08:58:09.216Z,78.15
2022-11-14T09:00:55.936Z,78.66
2022-11-14T09:03:45.918Z,79.09
2022-11-14T09:06:33.494Z,78.68
2022-11-14T09:09:21.455Z,78.97
2022-11-14T09:12:09.986Z,77.96
2022-11-14T09:14:58.030Z,78.10
2022-11-14T09:17:45.219Z,78.59
2022-11-14T09:20:39.718Z,77.21
2022-11-14T09:23:28.286Z,77.13
2022-11-14T09:26:19.549Z,76.98
2022-11-14T09:29:08.793Z,76.63
2022-11-14T09:31:56.767Z,77.46
2022-11-14T09:34:45.520Z,77.12
2022-11-14T09:37:34.524Z,77.96
2022-11-14T09:40:22.615Z,77.99
2022-11-14T09:43:28.515Z,78.17
2022-11-14T09:46:22.453Z,79.90
2022-11-14T09:49:19.457Z,81.92
2022-11-14T09:52:17.122Z,83.34
2022-11-14T09:55:12.734Z,82.95
2022-11-14T09:58:02.125Z,83.59
2022-11-14T10:00:55.823Z,84.05
2022-11-14T10:03:52.175Z,85.24
2022-11-14T10:06:47.396Z,85.21
2022-11-14T10:09:51.173Z,84.97
2022-11-14T10:12:52.990Z,86.05
2022-11-14T10:15:47.648Z,86.16
2022-11-14T10:18:51.027Z,86.15
2022-11-14T10:21:52.563Z,86.75
2022-11-14T10:25:22.239Z,86.77
2022-11-14T10:28:27.006Z,87.77
2022-11-14T10:31:24.780Z,86.77
2022-11-14T10:34:19.333Z,87.50
2022-11-14T10:37:17.323Z,86.96
2022-11-14T10:40:16.806Z,86.90
2022-11-14T10:43:12.797Z,82.92
2022-11-14T10:46:06.062Z,82.66
2022-11-14T10:48:59.931Z,84.67
2022-11-14T10:51:51.361Z,78.79
2022-11-14T10:54:42.937Z,76.76
2022-11-14T10:57:31.043Z,75.58
2022-11-14T11:00:20.118Z,74.50
2022-11-14T11:03:08.445Z,71.63
2022-11-14T11:05:57.531Z,70.71
2022-11-14T11:09:14.092Z,70.68
2022-11-14T11:12:03.869Z,72.77
2022-11-14T11:15:09.309Z,69.40
2022-11-14T11:17:57.923Z,69.04
2022-11-14T11:20:45.939Z,71.18
2022-11-14T11:23:33.703Z,70.65
2022-11-14T11:26:24.262Z,70.58
2022-11-14T11:29:18.143Z,70.47
2022-11-14T11:32:05.671Z,69.55
2022-11-14T11:34:53.414Z,68.68
2022-11-14T11:37:46.742Z,67.99
2022-11-14T11:40:34.121Z,68.00
2022-11-14T11:43:39.690Z,67.61
2022-11-14T11:46:33.178Z,67.78
2022-11-14T11:49:27.789Z,67.83
2022-11-14T11:52:33.552Z,67.10
2022-11-14T11:55:28.073Z,67.05
2022-11-14T11:58:23.573Z,66.25
2022-11-14T12:01:11.795Z,65.89
2022-11-14T12:03:58.901Z,65.96
2022-11-14T12:06:50.099Z,65.26
2022-11-14T12:10:08.945Z,65.07
2022-11-14T12:13:09.648Z,64.48
2022-11-14T12:16:12.736Z,64.80
2022-11-14T12:19:24.079Z,65.75
2022-11-14T12:22:33.855Z,66.17
2022-11-14T12:25:38.742Z,68.31
2022-11-14T12:28:43.969Z,67.63
2022-11-14T12:31:34.995Z,67.50
2022-11-14T12:34:27.131Z,67.01
2022-11-14T12:37:19.972Z,65.97
2022-11-14T12:40:09.774Z,66.65
2022-11-14T12:42:57.933Z,65.64
2022-11-14T12:46:03.941Z,65.32
2022-11-14T12:48:51.225Z,65.21
2022-11-14T12:51:52.245Z,62.29
2022-11-14T12:54:46.609Z,63.44
2022-11-14T12:57:49.380Z,61.90
2022-11-14T13:00:40.319Z,60.86
2022-11-14T13:03:48.456Z,59.39
2022-11-14T13:06:46.812Z,59.03
2022-11-14T13:09:42.760Z,59.67
2022-11-14T13:12:50.560Z,59.18
2022-11-14T13:16:06.850Z,58.45
2022-11-14T13:19:30.792Z,58.99
2022-11-14T13:22:37.057Z,60.04
2022-11-14T13:25:25.487Z,59.35
2022-11-14T13:28:48.511Z,59.61
2022-11-14T13:31:51.834Z,60.47
2022-11-14T13:34:50.763Z,61.00
2022-11-14T13:38:00.774Z,61.60
2022-11-14T13:40:54.923Z,61.71
2022-11-14T13:44:00.236Z,61.98
2022-11-14T13:47:05.920Z,60.92
2022-11-14T13:50:06.352Z,61.77
2022-11-14T13:52:53.623Z,61.67
2022-11-14T13:55:55.252Z,61.41
2022-11-14T13:59:15.003Z,61.54
2022-11-14T14:02:27.961Z,61.42
2022-11-14T14:05:28.717Z,61.00
2022-11-14T14:08:29.259Z,60.24
2022-11-14T14:11:47.159Z,60.87
2022-11-14T14:14:54.213Z,60.88
2022-11-14T14:17:49.268Z,61.54
2022-11-14T14:20:46.077Z,59.53
2022-11-14T14:23:43.493Z,60.72
2022-11-14T14:26:39.741Z,60.94
2022-11-14T14:29:38.862Z,60.84
2022-11-14T14:32:26.128Z,61.88
2022-11-14T14:35:24.949Z,60.87
2022-11-14T14:38:24.067Z,61.64
2022-11-14T14:41:14.137Z,61.82
2022-11-14T14:44:02.337Z,61.09
2022-11-14T14:46:50.222Z,62.31
2022-11-14T14:49:39.099Z,60.85
2022-11-14T14:52:30.769Z,62.61
2022-11-14T14:55:24.563Z,62.36
2022-11-14T14:58:22.273Z,62.05
2022-11-14T15:01:13.720Z,62.72
2022-11-14T15:04:05.322Z,62.34
2022-11-14T15:06:55.996Z,63.31
2022-11-14T15:09:52.985Z,62.81
2022-11-14T15:12:43.713Z,62.95
2022-11-14T15:15:32.715Z,63.11
2022-11-14T15:18:25.479Z,63.43
2022-11-14T15:21:27.155Z,64.19
2022-11-14T15:24:17.478Z,63.47
2022-11-14T15:27:07.085Z,62.52
2022-11-14T15:30:00.633Z,63.09
2022-11-14T15:32:49.632Z,62.40
2022-11-14T15:35:39.963Z,62.95
2022-11-14T15:38:44.543Z,64.04
2022-11-14T15:41:33.507Z,64.67
2022-11-14T15:44:32.043Z,63.24
2022-11-14T15:47:23.917Z,63.99
2022-11-14T15:50:28.153Z,63.88
2022-11-14T15:53:24.098Z,64.04
2022-11-14T15:56:13.857Z,64.39
2022-11-14T15:59:00.918Z,64.52
2022-11-14T16:01:51.968Z,65.87
2022-11-14T16:04:46.166Z,66.28
2022-11-14T16:07:35.668Z,65.28
2022-11-14T16:10:24.831Z,64.96
2022-11-14T16:13:12.745Z,65.86
2022-11-14T16:16:01.474Z,66.17
2022-11-14T16:18:49.139Z,66.10
2022-11-14T16:21:38.680Z,66.07
2022-11-14T16:24:29.862Z,67.22
2022-11-14T16:27:21.572Z,66.99
2022-11-14T16:30:11.738Z,67.03
2022-11-14T16:32:59.947Z,67.02
2022-11-14T16:35:47.376Z,67.10
2022-11-14T16:38:36.393Z,67.47
2022-11-14T16:41:23.817Z,67.80
2022-11-14T16:44:15.776Z,67.82
2022-11-14T16:47:03.495Z,67.17
2022-11-14T16:49:52.748Z,67.69
2022-11-14T16:52:40.753Z,68.56
2022-11-14T16:55:29.076Z,68.32
2022-11-14T16:58:15.950Z,68.51
2022-11-14T17:01:02.997Z,68.45
2022-11-14T17:03:50.347Z,67.90
2022-11-14T17:06:37.851Z,68.58
2022-11-14T17:09:25.336Z,68.73
2022-11-14T17:12:14.136Z,68.24
2022-11-14T17:15:02.263Z,69.35
2022-11-14T17:17:50.478Z,69.00
2022-11-14T17:20:39.314Z,69.31
2022-11-14T17:23:31.735Z,69.29
2022-11-14T17:26:19.650Z,69.81
2022-11-14T17:29:08.468Z,69.58
2022-11-14T17:31:56.586Z,69.15
2022-11-14T17:34:43.507Z,69.60
2022-11-14T17:37:31.449Z,70.30
2022-11-14T17:40:19.448Z,69.72
2022-11-14T17:43:08.644Z,69.52
2022-11-14T17:45:57.764Z,69.60
2022-11-14T17:48:45.357Z,68.94
2022-11-14T17:51:34.154Z,69.58
2022-11-14T17:54:22.837Z,69.77
2022-11-14T17:57:13.123Z,69.84
2022-11-14T18:00:03.499Z,70.26
2022-11-14T18:02:53.292Z,69.96
2022-11-14T18:05:41.629Z,69.79
2022-11-14T18:08:30.132Z,69.69
2022-11-14T18:11:19.823Z,70.02
2022-11-14T18:14:08.292Z,69.64
2022-11-14T18:17:12.419Z,70.73
2022-11-14T18:20:03.278Z,71.11
2022-11-14T18:22:52.185Z,71.79
2022-11-14T18:25:40.171Z,72.15
2022-11-14T18:28:27.687Z,72.65
2022-11-14T18:31:15.902Z,72.88
2022-11-14T18:34:04.377Z,73.20
2022-11-14T18:36:54.617Z,73.35
2022-11-14T18:39:42.745Z,73.21
2022-11-14T18:42:30.656Z,73.82
2022-11-14T18:45:18.328Z,73.58
2022-11-14T18:48:07.940Z,73.53
2022-11-14T18:51:01.772Z,73.09
2022-11-14T18:53:51.304Z,73.79
2022-11-14T18:56:40.202Z,73.45
2022-11-14T18:59:28.641Z,73.43
2022-11-14T19:02:17.748Z,73.78
2022-11-14T19:05:07.233Z,74.04
2022-11-14T19:07:54.783Z,73.24
2022-11-14T19:10:45.850Z,73.94
2022-11-14T19:13:35.909Z,73.52
2022-11-14T19:16:23.565Z,72.87
2022-11-14T19:19:12.869Z,73.02
2022-11-14T19:22:01.452Z,73.53
2022-11-14T19:24:48.835Z,72.42
2022-11-14T19:27:37.748Z,72.57
2022-11-14T19:30:25.820Z,71.96
2022-11-14T19:33:14.152Z,71.87
2022-11-14T19:36:06.679Z,71.71
2022-11-14T19:38:55.448Z,71.89
2022-11-14T19:41:46.090Z,72.35
2022-11-14T19:44:36.004Z,72.26
2022-11-14T19:47:24.189Z,72.30
2022-11-14T19:50:12.551Z,72.29
2022-11-14T19:53:00.126Z,72.49
2022-11-14T19:55:48.493Z,72.55
2022-11-14T19:58:36.703Z,72.65
2022-11-14T20:01:28.096Z,72.47
2022-11-14T20:04:17.313Z,71.48
2022-11-14T20:07:06.594Z,72.34
2022-11-14T20:09:55.280Z,71.26
2022-11-14T20:12:44.533Z,70.88
2022-11-14T20:15:32.980Z,71.44
2022-11-14T20:18:23.350Z,70.58
2022-11-14T20:21:13.582Z,70.73
2022-11-14T20:24:02.561Z,70.77
2022-11-14T20:26:50.079Z,70.92
2022-11-14T20:29:37.703Z,71.13
2022-11-14T20:32:26.465Z,72.25
2022-11-14T20:35:15.383Z,71.29
2022-11-14T20:38:04.884Z,72.10
2022-11-14T20:40:55.894Z,72.13
2022-11-14T20:43:44.523Z,72.28
2022-11-14T20:46:32.122Z,73.04
2022-11-14T20:49:20.002Z,71.96
2022-11-14T20:52:10.181Z,71.78
2022-11-14T20:54:58.152Z,71.96
2022-11-14T20:57:45.778Z,72.12
2022-11-14T21:00:34.290Z,72.46
2022-11-14T21:03:21.700Z,72.25
2022-11-14T21:06:12.281Z,72.46
2022-11-14T21:09:01.089Z,70.06
2022-11-14T21:11:49.050Z,70.30
2022-11-14T21:14:37.040Z,71.91
2022-11-14T21:17:24.731Z,71.67
2022-11-14T21:20:13.450Z,72.23
2022-11-14T21:23:02.263Z,71.97
2022-11-14T21:25:51.484Z,72.38
2022-11-14T21:28:40.822Z,72.27
2022-11-14T21:31:33.320Z,72.44
2022-11-14T21:34:22.370Z,73.11
2022-11-14T21:37:10.127Z,73.85
2022-11-14T21:39:57.940Z,72.75
2022-11-14T21:42:46.621Z,73.50
2022-11-14T21:45:34.020Z,73.23
2022-11-14T21:48:23.055Z,73.00
2022-11-14T21:51:12.640Z,73.13
2022-11-14T21:54:02.686Z,73.64
2022-11-14T21:56:50.423Z,73.49
2022-11-14T21:59:38.912Z,73.17
2022-11-14T22:02:45.758Z,73.27
2022-11-14T22:05:33.571Z,73.31
2022-11-14T22:08:21.300Z,72.39
2022-11-14T22:11:08.832Z,71.81
2022-11-14T22:13:56.960Z,72.51
2022-11-14T22:16:45.684Z,72.05
2022-11-14T22:19:33.588Z,72.68
2022-11-14T22:22:21.374Z,72.10
2022-11-14T22:25:09.571Z,70.95
2022-11-14T22:27:56.814Z,70.09
2022-11-14T22:30:44.291Z,71.19
2022-11-14T22:33:37.002Z,71.55
2022-11-14T22:36:27.959Z,71.10
2022-11-14T22:39:15.853Z,71.09
2022-11-14T22:42:04.173Z,72.23
2022-11-14T22:44:51.886Z,71.33
2022-11-14T22:47:39.989Z,72.03
2022-11-14T22:50:28.484Z,72.18
2022-11-14T22:53:16.513Z,72.32
2022-11-14T22:56:08.055Z,72.45
2022-11-14T22:58:55.849Z,72.83
2022-11-14T23:01:44.135Z,73.01
2022-11-14T23:04:31.111Z,72.91
2022-11-14T23:07:21.620Z,73.25
2022-11-14T23:10:10.051Z,72.91
2022-11-14T23:12:58.711Z,73.21
2022-11-14T23:15:49.459Z,72.38
2022-11-14T23:18:37.516Z,72.60
2022-11-14T23:21:26.991Z,72.12
2022-11-14T23:24:16.395Z,72.32
2022-11-14T23:27:05.378Z,72.65
2022-11-14T23:29:53.514Z,72.78
2022-11-14T23:32:42.376Z,72.46
2022-11-14T23:35:30.152Z,72.57
2022-11-14T23:38:18.234Z,72.60
2022-11-14T23:41:10.477Z,72.68
2022-11-14T23:43:57.928Z,73.14
2022-11-14T23:46:46.560Z,73.31
2022-11-14T23:49:33.985Z,73.58
2022-11-14T23:52:21.885Z,72.79
2022-11-14T23:55:10.578Z,73.57
2022-11-14T23:58:00.586Z,73.71
